sensor_id;sensor_type;location;lat;lon;timestamp;P1;durP1;ratioP1;P2;durP2;ratioP2
14181;SDS011;7171;50.936;6.764;2023-01-29T00:00:52;14.00;;;6.83;;
14181;SDS011;7171;50.936;6.764;2023-01-29T00:03:19;11.60;;;6.73;;
14181;SDS011;7171;50.936;6.764;2023-01-29T00:05:45;6.17;;;5.57;;
14181;SDS011;7171;50.936;6.764;2023-01-29T00:08:12;16.93;;;6.70;;
14181;SDS011;7171;50.936;6.764;2023-01-29T00:10:39;10.03;;;5.90;;
14181;SDS011;7171;50.936;6.764;2023-01-29T00:13:06;11.93;;;6.27;;
14181;SDS011;7171;50.936;6.764;2023-01-29T00:15:32;13.50;;;6.43;;
14181;SDS011;7171;50.936;6.764;2023-01-29T00:18:01;6.37;;;4.43;;
14181;SDS011;7171;50.936;6.764;2023-01-29T00:20:27;4.87;;;4.33;;
14181;SDS011;7171;50.936;6.764;2023-01-29T00:22:54;9.13;;;6.70;;
14181;SDS011;7171;50.936;6.764;2023-01-29T00:25:21;10.37;;;7.73;;
14181;SDS011;7171;50.936;6.764;2023-01-29T00:27:47;12.43;;;6.63;;
14181;SDS011;7171;50.936;6.764;2023-01-29T00:30:14;8.33;;;4.57;;
14181;SDS011;7171;50.936;6.764;2023-01-29T00:32:43;10.20;;;4.77;;
14181;SDS011;7171;50.936;6.764;2023-01-29T00:35:11;17.27;;;8.27;;
14181;SDS011;7171;50.936;6.764;2023-01-29T00:37:38;7.37;;;4.67;;
14181;SDS011;7171;50.936;6.764;2023-01-29T00:40:05;7.57;;;4.57;;
14181;SDS011;7171;50.936;6.764;2023-01-29T00:42:32;7.20;;;4.63;;
14181;SDS011;7171;50.936;6.764;2023-01-29T00:45:16;7.67;;;5.67;;
14181;SDS011;7171;50.936;6.764;2023-01-29T00:47:43;8.33;;;4.03;;
14181;SDS011;7171;50.936;6.764;2023-01-29T00:50:14;11.70;;;7.07;;
14181;SDS011;7171;50.936;6.764;2023-01-29T00:52:40;12.57;;;4.77;;
14181;SDS011;7171;50.936;6.764;2023-01-29T00:55:07;11.40;;;6.53;;
14181;SDS011;7171;50.936;6.764;2023-01-29T00:57:35;7.50;;;6.73;;
14181;SDS011;7171;50.936;6.764;2023-01-29T01:00:04;7.77;;;6.33;;
14181;SDS011;7171;50.936;6.764;2023-01-29T01:02:34;11.97;;;7.03;;
14181;SDS011;7171;50.936;6.764;2023-01-29T01:05:20;7.17;;;5.10;;
14181;SDS011;7171;50.936;6.764;2023-01-29T01:07:47;8.83;;;5.27;;
14181;SDS011;7171;50.936;6.764;2023-01-29T01:10:15;14.73;;;5.93;;
14181;SDS011;7171;50.936;6.764;2023-01-29T01:12:46;8.87;;;5.33;;
14181;SDS011;7171;50.936;6.764;2023-01-29T01:15:19;7.70;;;4.07;;
14181;SDS011;7171;50.936;6.764;2023-01-29T01:17:46;9.23;;;6.67;;
14181;SDS011;7171;50.936;6.764;2023-01-29T01:20:13;7.70;;;6.10;;
14181;SDS011;7171;50.936;6.764;2023-01-29T01:22:41;10.83;;;6.17;;
14181;SDS011;7171;50.936;6.764;2023-01-29T01:25:08;9.50;;;5.97;;
14181;SDS011;7171;50.936;6.764;2023-01-29T01:27:36;9.80;;;5.50;;
14181;SDS011;7171;50.936;6.764;2023-01-29T01:30:06;9.07;;;5.33;;
14181;SDS011;7171;50.936;6.764;2023-01-29T01:32:34;10.13;;;6.37;;
14181;SDS011;7171;50.936;6.764;2023-01-29T01:35:01;8.53;;;6.03;;
14181;SDS011;7171;50.936;6.764;2023-01-29T01:37:28;9.30;;;6.17;;
14181;SDS011;7171;50.936;6.764;2023-01-29T01:39:56;9.73;;;5.37;;
14181;SDS011;7171;50.936;6.764;2023-01-29T01:42:22;7.27;;;5.80;;
14181;SDS011;7171;50.936;6.764;2023-01-29T01:44:55;8.73;;;5.97;;
14181;SDS011;7171;50.936;6.764;2023-01-29T01:47:26;10.93;;;6.67;;
14181;SDS011;7171;50.936;6.764;2023-01-29T01:49:59;10.30;;;7.67;;
14181;SDS011;7171;50.936;6.764;2023-01-29T01:52:32;8.70;;;4.50;;
14181;SDS011;7171;50.936;6.764;2023-01-29T01:55:01;14.93;;;5.53;;
14181;SDS011;7171;50.936;6.764;2023-01-29T01:57:29;9.97;;;6.80;;
14181;SDS011;7171;50.936;6.764;2023-01-29T01:59:58;11.63;;;6.80;;
14181;SDS011;7171;50.936;6.764;2023-01-29T02:02:34;14.33;;;8.43;;
14181;SDS011;7171;50.936;6.764;2023-01-29T02:05:19;7.50;;;5.90;;
14181;SDS011;7171;50.936;6.764;2023-01-29T02:08:03;7.70;;;4.67;;
14181;SDS011;7171;50.936;6.764;2023-01-29T02:10:49;8.70;;;6.50;;
14181;SDS011;7171;50.936;6.764;2023-01-29T02:13:16;10.20;;;6.23;;
14181;SDS011;7171;50.936;6.764;2023-01-29T02:15:43;10.03;;;5.03;;
14181;SDS011;7171;50.936;6.764;2023-01-29T02:18:12;8.20;;;5.83;;
14181;SDS011;7171;50.936;6.764;2023-01-29T02:20:42;8.93;;;6.93;;
14181;SDS011;7171;50.936;6.764;2023-01-29T02:23:20;9.53;;;6.87;;
14181;SDS011;7171;50.936;6.764;2023-01-29T02:26:11;10.87;;;6.03;;
14181;SDS011;7171;50.936;6.764;2023-01-29T02:28:50;6.40;;;5.67;;
14181;SDS011;7171;50.936;6.764;2023-01-29T02:31:23;9.50;;;6.57;;
14181;SDS011;7171;50.936;6.764;2023-01-29T02:33:59;11.03;;;6.67;;
14181;SDS011;7171;50.936;6.764;2023-01-29T02:36:37;10.60;;;5.30;;
14181;SDS011;7171;50.936;6.764;2023-01-29T02:39:12;11.63;;;6.57;;
14181;SDS011;7171;50.936;6.764;2023-01-29T02:41:43;10.70;;;7.57;;
14181;SDS011;7171;50.936;6.764;2023-01-29T02:44:21;13.90;;;8.47;;
14181;SDS011;7171;50.936;6.764;2023-01-29T02:46:56;9.43;;;6.57;;
14181;SDS011;7171;50.936;6.764;2023-01-29T02:49:30;8.10;;;6.43;;
14181;SDS011;7171;50.936;6.764;2023-01-29T02:52:02;10.80;;;5.83;;
14181;SDS011;7171;50.936;6.764;2023-01-29T02:54:36;11.27;;;8.03;;
14181;SDS011;7171;50.936;6.764;2023-01-29T02:57:09;10.77;;;6.00;;
14181;SDS011;7171;50.936;6.764;2023-01-29T02:59:43;10.50;;;5.33;;
14181;SDS011;7171;50.936;6.764;2023-01-29T03:02:14;10.63;;;6.23;;
14181;SDS011;7171;50.936;6.764;2023-01-29T03:04:46;8.63;;;7.07;;
14181;SDS011;7171;50.936;6.764;2023-01-29T03:07:21;16.40;;;7.97;;
14181;SDS011;7171;50.936;6.764;2023-01-29T03:10:09;10.77;;;6.50;;
14181;SDS011;7171;50.936;6.764;2023-01-29T03:12:40;10.30;;;7.77;;
14181;SDS011;7171;50.936;6.764;2023-01-29T03:15:14;8.73;;;4.80;;
14181;SDS011;7171;50.936;6.764;2023-01-29T03:17:50;9.53;;;6.80;;
14181;SDS011;7171;50.936;6.764;2023-01-29T03:20:21;10.77;;;6.23;;
14181;SDS011;7171;50.936;6.764;2023-01-29T03:22:54;7.63;;;5.83;;
14181;SDS011;7171;50.936;6.764;2023-01-29T03:25:25;9.13;;;6.37;;
14181;SDS011;7171;50.936;6.764;2023-01-29T03:28:12;15.83;;;5.87;;
14181;SDS011;7171;50.936;6.764;2023-01-29T03:31:02;5.17;;;4.67;;
14181;SDS011;7171;50.936;6.764;2023-01-29T03:33:48;7.27;;;6.43;;
14181;SDS011;7171;50.936;6.764;2023-01-29T03:36:18;10.63;;;5.80;;
14181;SDS011;7171;50.936;6.764;2023-01-29T03:38:48;9.87;;;6.43;;
14181;SDS011;7171;50.936;6.764;2023-01-29T03:41:17;10.20;;;5.87;;
14181;SDS011;7171;50.936;6.764;2023-01-29T03:43:51;9.63;;;5.07;;
14181;SDS011;7171;50.936;6.764;2023-01-29T03:46:29;8.77;;;6.27;;
14181;SDS011;7171;50.936;6.764;2023-01-29T03:49:01;11.80;;;7.73;;
14181;SDS011;7171;50.936;6.764;2023-01-29T03:51:37;10.13;;;5.27;;
14181;SDS011;7171;50.936;6.764;2023-01-29T03:54:17;6.13;;;4.20;;
14181;SDS011;7171;50.936;6.764;2023-01-29T03:56:53;7.13;;;5.43;;
14181;SDS011;7171;50.936;6.764;2023-01-29T03:59:28;5.77;;;4.50;;
14181;SDS011;7171;50.936;6.764;2023-01-29T04:02:02;7.37;;;5.30;;
14181;SDS011;7171;50.936;6.764;2023-01-29T04:04:33;7.63;;;6.13;;
14181;SDS011;7171;50.936;6.764;2023-01-29T04:07:02;10.13;;;5.77;;
14181;SDS011;7171;50.936;6.764;2023-01-29T04:09:35;7.70;;;5.23;;
14181;SDS011;7171;50.936;6.764;2023-01-29T04:12:06;12.83;;;6.03;;
14181;SDS011;7171;50.936;6.764;2023-01-29T04:14:34;11.70;;;7.50;;
14181;SDS011;7171;50.936;6.764;2023-01-29T04:17:05;10.20;;;7.70;;
14181;SDS011;7171;50.936;6.764;2023-01-29T04:19:34;11.70;;;4.97;;
14181;SDS011;7171;50.936;6.764;2023-01-29T04:22:03;8.13;;;5.40;;
14181;SDS011;7171;50.936;6.764;2023-01-29T04:24:35;11.83;;;4.83;;
14181;SDS011;7171;50.936;6.764;2023-01-29T04:27:08;6.10;;;4.53;;
14181;SDS011;7171;50.936;6.764;2023-01-29T04:29:50;8.63;;;6.60;;
14181;SDS011;7171;50.936;6.764;2023-01-29T04:32:27;5.93;;;5.33;;
14181;SDS011;7171;50.936;6.764;2023-01-29T04:35:02;12.03;;;7.13;;
14181;SDS011;7171;50.936;6.764;2023-01-29T04:37:38;5.00;;;4.53;;
14181;SDS011;7171;50.936;6.764;2023-01-29T04:40:14;10.87;;;5.70;;
14181;SDS011;7171;50.936;6.764;2023-01-29T04:42:47;9.30;;;5.30;;
14181;SDS011;7171;50.936;6.764;2023-01-29T04:45:21;8.70;;;5.03;;
14181;SDS011;7171;50.936;6.764;2023-01-29T04:47:56;8.53;;;5.90;;
14181;SDS011;7171;50.936;6.764;2023-01-29T04:50:28;6.53;;;5.90;;
14181;SDS011;7171;50.936;6.764;2023-01-29T04:53:02;11.73;;;6.23;;
14181;SDS011;7171;50.936;6.764;2023-01-29T04:55:35;6.27;;;5.07;;
14181;SDS011;7171;50.936;6.764;2023-01-29T04:58:07;8.57;;;5.10;;
14181;SDS011;7171;50.936;6.764;2023-01-29T05:00:39;7.27;;;5.80;;
14181;SDS011;7171;50.936;6.764;2023-01-29T05:03:09;5.47;;;4.57;;
14181;SDS011;7171;50.936;6.764;2023-01-29T05:05:38;9.57;;;5.43;;
14181;SDS011;7171;50.936;6.764;2023-01-29T05:08:07;7.17;;;4.90;;
14181;SDS011;7171;50.936;6.764;2023-01-29T05:10:37;15.17;;;6.70;;
14181;SDS011;7171;50.936;6.764;2023-01-29T05:13:05;7.80;;;4.87;;
14181;SDS011;7171;50.936;6.764;2023-01-29T05:15:36;8.97;;;7.30;;
14181;SDS011;7171;50.936;6.764;2023-01-29T05:18:05;6.50;;;4.73;;
14181;SDS011;7171;50.936;6.764;2023-01-29T05:20:34;10.20;;;4.83;;
14181;SDS011;7171;50.936;6.764;2023-01-29T05:23:03;8.40;;;6.57;;
14181;SDS011;7171;50.936;6.764;2023-01-29T05:25:33;9.43;;;4.90;;
14181;SDS011;7171;50.936;6.764;2023-01-29T05:28:00;8.63;;;6.03;;
14181;SDS011;7171;50.936;6.764;2023-01-29T05:30:29;6.57;;;4.87;;
14181;SDS011;7171;50.936;6.764;2023-01-29T05:32:57;8.77;;;6.00;;
14181;SDS011;7171;50.936;6.764;2023-01-29T05:35:24;8.53;;;4.57;;
14181;SDS011;7171;50.936;6.764;2023-01-29T05:37:53;9.93;;;6.63;;
14181;SDS011;7171;50.936;6.764;2023-01-29T05:40:20;5.73;;;4.17;;
14181;SDS011;7171;50.936;6.764;2023-01-29T05:42:47;6.03;;;5.40;;
14181;SDS011;7171;50.936;6.764;2023-01-29T05:45:15;13.87;;;5.70;;
14181;SDS011;7171;50.936;6.764;2023-01-29T05:47:42;12.00;;;6.33;;
14181;SDS011;7171;50.936;6.764;2023-01-29T05:50:10;6.07;;;5.40;;
14181;SDS011;7171;50.936;6.764;2023-01-29T05:52:37;8.47;;;5.20;;
14181;SDS011;7171;50.936;6.764;2023-01-29T05:55:06;5.47;;;4.77;;
14181;SDS011;7171;50.936;6.764;2023-01-29T05:57:34;8.23;;;3.73;;
14181;SDS011;7171;50.936;6.764;2023-01-29T06:00:01;10.47;;;5.17;;
14181;SDS011;7171;50.936;6.764;2023-01-29T06:02:28;10.03;;;6.60;;
14181;SDS011;7171;50.936;6.764;2023-01-29T06:04:55;13.27;;;7.37;;
14181;SDS011;7171;50.936;6.764;2023-01-29T06:07:22;10.00;;;5.03;;
14181;SDS011;7171;50.936;6.764;2023-01-29T06:09:49;5.57;;;5.07;;
14181;SDS011;7171;50.936;6.764;2023-01-29T06:12:17;13.77;;;5.13;;
14181;SDS011;7171;50.936;6.764;2023-01-29T06:14:43;6.20;;;5.23;;
14181;SDS011;7171;50.936;6.764;2023-01-29T06:17:10;12.37;;;6.60;;
14181;SDS011;7171;50.936;6.764;2023-01-29T06:19:37;7.07;;;6.27;;
14181;SDS011;7171;50.936;6.764;2023-01-29T06:22:03;5.47;;;4.63;;
14181;SDS011;7171;50.936;6.764;2023-01-29T06:24:30;7.70;;;5.93;;
14181;SDS011;7171;50.936;6.764;2023-01-29T06:26:57;11.63;;;6.50;;
14181;SDS011;7171;50.936;6.764;2023-01-29T06:29:25;4.83;;;4.30;;
14181;SDS011;7171;50.936;6.764;2023-01-29T06:31:52;5.23;;;4.77;;
14181;SDS011;7171;50.936;6.764;2023-01-29T06:34:19;7.90;;;5.63;;
14181;SDS011;7171;50.936;6.764;2023-01-29T06:36:45;6.17;;;5.50;;
14181;SDS011;7171;50.936;6.764;2023-01-29T06:39:12;10.37;;;6.90;;
14181;SDS011;7171;50.936;6.764;2023-01-29T06:41:39;7.97;;;5.63;;
14181;SDS011;7171;50.936;6.764;2023-01-29T06:44:05;16.67;;;7.30;;
14181;SDS011;7171;50.936;6.764;2023-01-29T06:46:33;8.33;;;4.40;;
14181;SDS011;7171;50.936;6.764;2023-01-29T06:49:00;9.53;;;5.07;;
14181;SDS011;7171;50.936;6.764;2023-01-29T06:51:27;7.07;;;6.10;;
14181;SDS011;7171;50.936;6.764;2023-01-29T06:53:54;7.83;;;5.80;;
14181;SDS011;7171;50.936;6.764;2023-01-29T06:56:21;8.17;;;5.37;;
14181;SDS011;7171;50.936;6.764;2023-01-29T06:58:48;6.67;;;5.97;;
14181;SDS011;7171;50.936;6.764;2023-01-29T07:01:15;9.30;;;4.83;;
14181;SDS011;7171;50.936;6.764;2023-01-29T07:03:43;8.83;;;6.10;;
14181;SDS011;7171;50.936;6.764;2023-01-29T07:06:10;14.10;;;5.87;;
14181;SDS011;7171;50.936;6.764;2023-01-29T07:08:37;8.43;;;3.97;;
14181;SDS011;7171;50.936;6.764;2023-01-29T07:11:04;8.70;;;4.87;;
14181;SDS011;7171;50.936;6.764;2023-01-29T07:13:32;9.27;;;6.97;;
14181;SDS011;7171;50.936;6.764;2023-01-29T07:15:59;13.53;;;6.17;;
14181;SDS011;7171;50.936;6.764;2023-01-29T07:18:26;8.03;;;5.87;;
14181;SDS011;7171;50.936;6.764;2023-01-29T07:20:54;7.17;;;4.57;;
14181;SDS011;7171;50.936;6.764;2023-01-29T07:23:21;10.73;;;4.70;;
14181;SDS011;7171;50.936;6.764;2023-01-29T07:25:48;9.33;;;5.37;;
14181;SDS011;7171;50.936;6.764;2023-01-29T07:28:16;9.57;;;4.67;;
14181;SDS011;7171;50.936;6.764;2023-01-29T07:30:43;5.77;;;4.87;;
14181;SDS011;7171;50.936;6.764;2023-01-29T07:33:09;8.83;;;4.27;;
14181;SDS011;7171;50.936;6.764;2023-01-29T07:35:37;6.80;;;4.40;;
14181;SDS011;7171;50.936;6.764;2023-01-29T07:38:06;10.03;;;6.53;;
14181;SDS011;7171;50.936;6.764;2023-01-29T07:40:34;7.00;;;6.00;;
14181;SDS011;7171;50.936;6.764;2023-01-29T07:43:02;7.13;;;4.53;;
14181;SDS011;7171;50.936;6.764;2023-01-29T07:45:30;7.07;;;5.13;;
14181;SDS011;7171;50.936;6.764;2023-01-29T07:47:58;6.50;;;4.97;;
14181;SDS011;7171;50.936;6.764;2023-01-29T07:50:25;6.73;;;5.03;;
14181;SDS011;7171;50.936;6.764;2023-01-29T07:52:52;8.03;;;4.73;;
14181;SDS011;7171;50.936;6.764;2023-01-29T07:55:21;7.00;;;4.13;;
14181;SDS011;7171;50.936;6.764;2023-01-29T07:57:53;8.47;;;5.67;;
14181;SDS011;7171;50.936;6.764;2023-01-29T08:00:20;11.33;;;6.07;;
14181;SDS011;7171;50.936;6.764;2023-01-29T08:02:47;8.00;;;5.03;;
14181;SDS011;7171;50.936;6.764;2023-01-29T08:05:14;11.10;;;6.37;;
14181;SDS011;7171;50.936;6.764;2023-01-29T08:07:41;8.80;;;5.33;;
14181;SDS011;7171;50.936;6.764;2023-01-29T08:10:08;10.97;;;8.23;;
14181;SDS011;7171;50.936;6.764;2023-01-29T08:12:37;8.07;;;5.97;;
14181;SDS011;7171;50.936;6.764;2023-01-29T08:15:04;13.03;;;5.20;;
14181;SDS011;7171;50.936;6.764;2023-01-29T08:17:31;8.80;;;4.70;;
14181;SDS011;7171;50.936;6.764;2023-01-29T08:19:58;10.40;;;6.30;;
14181;SDS011;7171;50.936;6.764;2023-01-29T08:22:24;7.10;;;4.47;;
14181;SDS011;7171;50.936;6.764;2023-01-29T08:24:51;13.77;;;5.67;;
14181;SDS011;7171;50.936;6.764;2023-01-29T08:27:17;9.10;;;6.43;;
14181;SDS011;7171;50.936;6.764;2023-01-29T08:29:46;6.77;;;5.43;;
14181;SDS011;7171;50.936;6.764;2023-01-29T08:32:12;7.40;;;5.80;;
14181;SDS011;7171;50.936;6.764;2023-01-29T08:34:39;11.77;;;6.80;;
14181;SDS011;7171;50.936;6.764;2023-01-29T08:37:06;7.03;;;5.23;;
14181;SDS011;7171;50.936;6.764;2023-01-29T08:39:32;15.83;;;5.43;;
14181;SDS011;7171;50.936;6.764;2023-01-29T08:41:59;10.60;;;6.47;;
14181;SDS011;7171;50.936;6.764;2023-01-29T08:44:26;8.97;;;5.37;;
14181;SDS011;7171;50.936;6.764;2023-01-29T08:46:54;7.37;;;4.63;;
14181;SDS011;7171;50.936;6.764;2023-01-29T08:49:20;9.83;;;5.77;;
14181;SDS011;7171;50.936;6.764;2023-01-29T08:51:47;16.50;;;8.57;;
14181;SDS011;7171;50.936;6.764;2023-01-29T08:54:15;8.53;;;5.57;;
14181;SDS011;7171;50.936;6.764;2023-01-29T08:56:42;11.60;;;5.37;;
14181;SDS011;7171;50.936;6.764;2023-01-29T08:59:09;9.53;;;5.43;;
14181;SDS011;7171;50.936;6.764;2023-01-29T09:01:36;18.40;;;7.57;;
14181;SDS011;7171;50.936;6.764;2023-01-29T09:04:04;11.30;;;5.70;;
14181;SDS011;7171;50.936;6.764;2023-01-29T09:06:31;13.67;;;6.57;;
14181;SDS011;7171;50.936;6.764;2023-01-29T09:08:58;13.87;;;7.57;;
14181;SDS011;7171;50.936;6.764;2023-01-29T09:11:25;6.70;;;5.13;;
14181;SDS011;7171;50.936;6.764;2023-01-29T09:13:51;11.53;;;5.83;;
14181;SDS011;7171;50.936;6.764;2023-01-29T09:16:18;8.50;;;4.47;;
14181;SDS011;7171;50.936;6.764;2023-01-29T09:18:45;9.90;;;5.97;;
14181;SDS011;7171;50.936;6.764;2023-01-29T09:21:13;14.37;;;6.57;;
14181;SDS011;7171;50.936;6.764;2023-01-29T09:23:39;12.10;;;5.23;;
14181;SDS011;7171;50.936;6.764;2023-01-29T09:26:06;12.67;;;7.53;;
14181;SDS011;7171;50.936;6.764;2023-01-29T09:28:33;13.67;;;8.23;;
14181;SDS011;7171;50.936;6.764;2023-01-29T09:31:00;11.47;;;5.77;;
14181;SDS011;7171;50.936;6.764;2023-01-29T09:33:27;12.63;;;7.00;;
14181;SDS011;7171;50.936;6.764;2023-01-29T09:35:54;11.63;;;7.27;;
14181;SDS011;7171;50.936;6.764;2023-01-29T09:38:23;13.23;;;6.87;;
14181;SDS011;7171;50.936;6.764;2023-01-29T09:40:53;11.83;;;6.77;;
14181;SDS011;7171;50.936;6.764;2023-01-29T09:43:26;11.17;;;7.17;;
14181;SDS011;7171;50.936;6.764;2023-01-29T09:46:03;12.77;;;6.43;;
14181;SDS011;7171;50.936;6.764;2023-01-29T09:48:37;10.63;;;5.70;;
14181;SDS011;7171;50.936;6.764;2023-01-29T09:51:05;9.50;;;5.57;;
14181;SDS011;7171;50.936;6.764;2023-01-29T09:53:42;12.90;;;6.93;;
14181;SDS011;7171;50.936;6.764;2023-01-29T09:56:14;16.13;;;7.40;;
14181;SDS011;7171;50.936;6.764;2023-01-29T09:58:45;12.63;;;7.10;;
14181;SDS011;7171;50.936;6.764;2023-01-29T10:01:12;15.07;;;7.83;;
14181;SDS011;7171;50.936;6.764;2023-01-29T10:03:51;10.27;;;6.57;;
14181;SDS011;7171;50.936;6.764;2023-01-29T10:06:33;14.80;;;6.33;;
14181;SDS011;7171;50.936;6.764;2023-01-29T10:12:10;13.30;;;5.93;;
14181;SDS011;7171;50.936;6.764;2023-01-29T10:14:46;10.13;;;6.23;;
14181;SDS011;7171;50.936;6.764;2023-01-29T10:20:25;18.50;;;8.13;;
14181;SDS011;7171;50.936;6.764;2023-01-29T10:23:06;14.50;;;6.90;;
14181;SDS011;7171;50.936;6.764;2023-01-29T10:25:43;7.77;;;5.23;;
14181;SDS011;7171;50.936;6.764;2023-01-29T10:28:14;12.33;;;8.23;;
14181;SDS011;7171;50.936;6.764;2023-01-29T10:30:44;14.03;;;7.40;;
14181;SDS011;7171;50.936;6.764;2023-01-29T10:33:16;13.07;;;5.80;;
14181;SDS011;7171;50.936;6.764;2023-01-29T10:35:45;12.07;;;7.17;;
14181;SDS011;7171;50.936;6.764;2023-01-29T10:41:10;13.53;;;8.03;;
14181;SDS011;7171;50.936;6.764;2023-01-29T10:43:47;8.53;;;6.23;;
14181;SDS011;7171;50.936;6.764;2023-01-29T10:46:21;18.37;;;9.00;;
14181;SDS011;7171;50.936;6.764;2023-01-29T10:48:56;15.90;;;9.07;;
14181;SDS011;7171;50.936;6.764;2023-01-29T10:51:35;11.90;;;7.27;;
14181;SDS011;7171;50.936;6.764;2023-01-29T10:54:17;13.27;;;6.93;;
14181;SDS011;7171;50.936;6.764;2023-01-29T10:57:04;14.00;;;6.33;;
14181;SDS011;7171;50.936;6.764;2023-01-29T10:59:53;13.57;;;7.53;;
14181;SDS011;7171;50.936;6.764;2023-01-29T11:02:28;13.67;;;6.97;;
14181;SDS011;7171;50.936;6.764;2023-01-29T11:04:55;16.67;;;8.03;;
14181;SDS011;7171;50.936;6.764;2023-01-29T11:07:21;20.43;;;8.90;;
14181;SDS011;7171;50.936;6.764;2023-01-29T11:09:50;12.90;;;6.77;;
14181;SDS011;7171;50.936;6.764;2023-01-29T11:12:24;16.03;;;7.17;;
14181;SDS011;7171;50.936;6.764;2023-01-29T11:14:56;15.43;;;6.57;;
14181;SDS011;7171;50.936;6.764;2023-01-29T11:17:28;15.67;;;7.80;;
14181;SDS011;7171;50.936;6.764;2023-01-29T11:19:54;15.43;;;8.37;;
14181;SDS011;7171;50.936;6.764;2023-01-29T11:22:22;10.87;;;7.63;;
14181;SDS011;7171;50.936;6.764;2023-01-29T11:27:43;13.47;;;6.90;;
14181;SDS011;7171;50.936;6.764;2023-01-29T11:30:16;14.07;;;6.97;;
14181;SDS011;7171;50.936;6.764;2023-01-29T11:32:49;15.20;;;9.00;;
14181;SDS011;7171;50.936;6.764;2023-01-29T11:35:22;18.33;;;8.00;;
14181;SDS011;7171;50.936;6.764;2023-01-29T11:37:49;21.90;;;9.90;;
14181;SDS011;7171;50.936;6.764;2023-01-29T11:40:34;10.40;;;7.23;;
14181;SDS011;7171;50.936;6.764;2023-01-29T11:45:57;12.47;;;6.83;;
14181;SDS011;7171;50.936;6.764;2023-01-29T11:48:30;15.90;;;8.73;;
14181;SDS011;7171;50.936;6.764;2023-01-29T11:51:04;11.13;;;8.13;;
14181;SDS011;7171;50.936;6.764;2023-01-29T11:53:35;13.80;;;6.80;;
14181;SDS011;7171;50.936;6.764;2023-01-29T11:56:04;13.23;;;7.33;;
14181;SDS011;7171;50.936;6.764;2023-01-29T11:58:42;15.27;;;8.80;;
14181;SDS011;7171;50.936;6.764;2023-01-29T12:01:10;17.87;;;8.63;;
14181;SDS011;7171;50.936;6.764;2023-01-29T12:03:38;13.83;;;7.97;;
14181;SDS011;7171;50.936;6.764;2023-01-29T12:06:12;17.43;;;10.03;;
14181;SDS011;7171;50.936;6.764;2023-01-29T12:08:43;14.93;;;8.30;;
14181;SDS011;7171;50.936;6.764;2023-01-29T12:11:10;12.63;;;7.93;;
14181;SDS011;7171;50.936;6.764;2023-01-29T12:13:55;13.70;;;8.17;;
14181;SDS011;7171;50.936;6.764;2023-01-29T12:16:24;18.23;;;9.17;;
14181;SDS011;7171;50.936;6.764;2023-01-29T12:18:54;20.73;;;11.37;;
14181;SDS011;7171;50.936;6.764;2023-01-29T12:21:29;20.23;;;8.87;;
14181;SDS011;7171;50.936;6.764;2023-01-29T12:24:00;20.50;;;8.43;;
14181;SDS011;7171;50.936;6.764;2023-01-29T12:26:32;22.50;;;10.43;;
14181;SDS011;7171;50.936;6.764;2023-01-29T12:29:23;17.40;;;7.57;;
14181;SDS011;7171;50.936;6.764;2023-01-29T12:31:58;12.10;;;7.70;;
14181;SDS011;7171;50.936;6.764;2023-01-29T12:34:32;15.50;;;6.93;;
14181;SDS011;7171;50.936;6.764;2023-01-29T12:37:10;16.43;;;8.20;;
14181;SDS011;7171;50.936;6.764;2023-01-29T12:39:44;16.83;;;8.73;;
14181;SDS011;7171;50.936;6.764;2023-01-29T12:42:12;16.47;;;7.40;;
14181;SDS011;7171;50.936;6.764;2023-01-29T12:44:44;18.40;;;8.63;;
14181;SDS011;7171;50.936;6.764;2023-01-29T12:47:16;15.30;;;8.17;;
14181;SDS011;7171;50.936;6.764;2023-01-29T12:49:48;18.87;;;7.27;;
14181;SDS011;7171;50.936;6.764;2023-01-29T12:52:17;18.60;;;9.33;;
14181;SDS011;7171;50.936;6.764;2023-01-29T12:54:52;15.80;;;8.13;;
14181;SDS011;7171;50.936;6.764;2023-01-29T12:57:23;15.67;;;8.43;;
14181;SDS011;7171;50.936;6.764;2023-01-29T12:59:56;16.20;;;7.10;;
14181;SDS011;7171;50.936;6.764;2023-01-29T13:02:30;10.63;;;6.97;;
14181;SDS011;7171;50.936;6.764;2023-01-29T13:05:01;20.93;;;8.20;;
14181;SDS011;7171;50.936;6.764;2023-01-29T13:07:34;14.67;;;7.20;;
14181;SDS011;7171;50.936;6.764;2023-01-29T13:10:06;17.57;;;9.57;;
14181;SDS011;7171;50.936;6.764;2023-01-29T13:12:37;9.87;;;7.07;;
14181;SDS011;7171;50.936;6.764;2023-01-29T13:15:14;14.10;;;6.80;;
14181;SDS011;7171;50.936;6.764;2023-01-29T13:17:48;18.33;;;9.17;;
14181;SDS011;7171;50.936;6.764;2023-01-29T13:20:20;18.30;;;9.90;;
14181;SDS011;7171;50.936;6.764;2023-01-29T13:22:50;16.20;;;8.73;;
14181;SDS011;7171;50.936;6.764;2023-01-29T13:25:19;15.67;;;8.53;;
14181;SDS011;7171;50.936;6.764;2023-01-29T13:27:46;19.07;;;8.63;;
14181;SDS011;7171;50.936;6.764;2023-01-29T13:30:26;17.17;;;8.13;;
14181;SDS011;7171;50.936;6.764;2023-01-29T13:32:54;15.43;;;7.47;;
14181;SDS011;7171;50.936;6.764;2023-01-29T13:35:32;13.13;;;8.57;;
14181;SDS011;7171;50.936;6.764;2023-01-29T13:38:02;14.97;;;8.13;;
14181;SDS011;7171;50.936;6.764;2023-01-29T13:40:30;14.80;;;7.97;;
14181;SDS011;7171;50.936;6.764;2023-01-29T13:42:59;15.27;;;7.73;;
14181;SDS011;7171;50.936;6.764;2023-01-29T13:45:31;20.93;;;8.00;;
14181;SDS011;7171;50.936;6.764;2023-01-29T13:48:08;18.67;;;10.37;;
14181;SDS011;7171;50.936;6.764;2023-01-29T13:50:37;13.60;;;6.80;;
14181;SDS011;7171;50.936;6.764;2023-01-29T13:53:06;13.70;;;7.47;;
14181;SDS011;7171;50.936;6.764;2023-01-29T13:55:43;9.17;;;4.60;;
14181;SDS011;7171;50.936;6.764;2023-01-29T13:58:12;10.70;;;6.20;;
14181;SDS011;7171;50.936;6.764;2023-01-29T14:00:51;9.87;;;5.70;;
14181;SDS011;7171;50.936;6.764;2023-01-29T14:06:37;7.07;;;4.10;;
14181;SDS011;7171;50.936;6.764;2023-01-29T14:12:32;6.20;;;3.60;;
14181;SDS011;7171;50.936;6.764;2023-01-29T14:17:59;7.10;;;4.57;;
14181;SDS011;7171;50.936;6.764;2023-01-29T14:20:51;4.50;;;2.20;;
14181;SDS011;7171;50.936;6.764;2023-01-29T14:23:31;4.83;;;2.30;;
14181;SDS011;7171;50.936;6.764;2023-01-29T14:26:05;2.57;;;2.20;;
14181;SDS011;7171;50.936;6.764;2023-01-29T14:28:52;3.37;;;1.83;;
14181;SDS011;7171;50.936;6.764;2023-01-29T14:31:29;2.07;;;1.67;;
14181;SDS011;7171;50.936;6.764;2023-01-29T14:34:02;2.63;;;2.03;;
14181;SDS011;7171;50.936;6.764;2023-01-29T14:36:37;3.27;;;2.40;;
14181;SDS011;7171;50.936;6.764;2023-01-29T14:39:05;1.80;;;1.70;;
14181;SDS011;7171;50.936;6.764;2023-01-29T14:41:32;2.90;;;1.63;;
14181;SDS011;7171;50.936;6.764;2023-01-29T14:53:32;3.77;;;2.07;;
14181;SDS011;7171;50.936;6.764;2023-01-29T14:56:11;3.53;;;2.23;;
14181;SDS011;7171;50.936;6.764;2023-01-29T14:58:42;2.90;;;2.17;;
14181;SDS011;7171;50.936;6.764;2023-01-29T15:01:16;2.73;;;2.20;;
14181;SDS011;7171;50.936;6.764;2023-01-29T15:03:47;3.03;;;2.30;;
14181;SDS011;7171;50.936;6.764;2023-01-29T15:06:27;1.73;;;1.63;;
14181;SDS011;7171;50.936;6.764;2023-01-29T15:09:02;3.03;;;2.13;;
14181;SDS011;7171;50.936;6.764;2023-01-29T15:11:34;2.57;;;2.30;;
14181;SDS011;7171;50.936;6.764;2023-01-29T15:14:12;3.33;;;2.10;;
14181;SDS011;7171;50.936;6.764;2023-01-29T15:16:50;4.73;;;3.47;;
14181;SDS011;7171;50.936;6.764;2023-01-29T15:19:22;3.10;;;2.17;;
14181;SDS011;7171;50.936;6.764;2023-01-29T15:22:07;2.57;;;2.13;;
14181;SDS011;7171;50.936;6.764;2023-01-29T15:24:36;3.27;;;2.97;;
14181;SDS011;7171;50.936;6.764;2023-01-29T15:27:05;3.30;;;2.63;;
14181;SDS011;7171;50.936;6.764;2023-01-29T15:29:34;4.67;;;3.37;;
14181;SDS011;7171;50.936;6.764;2023-01-29T15:32:03;3.37;;;3.00;;
14181;SDS011;7171;50.936;6.764;2023-01-29T15:34:30;3.00;;;2.50;;
14181;SDS011;7171;50.936;6.764;2023-01-29T15:36:57;3.40;;;2.10;;
14181;SDS011;7171;50.936;6.764;2023-01-29T15:39:26;2.27;;;2.07;;
14181;SDS011;7171;50.936;6.764;2023-01-29T15:42:04;2.87;;;2.10;;
14181;SDS011;7171;50.936;6.764;2023-01-29T15:44:42;5.63;;;3.17;;
14181;SDS011;7171;50.936;6.764;2023-01-29T15:47:10;4.93;;;2.50;;
14181;SDS011;7171;50.936;6.764;2023-01-29T15:49:38;5.07;;;2.40;;
14181;SDS011;7171;50.936;6.764;2023-01-29T15:52:06;4.87;;;3.23;;